createdAt,value
2023-05-13T00:00:39.401Z,9.70
2023-05-13T00:03:12.645Z,11.60
2023-05-13T00:05:41.079Z,7.60
2023-05-13T00:08:09.073Z,8.90
2023-05-13T00:10:36.959Z,10.60
2023-05-13T00:13:05.023Z,8.40
2023-05-13T00:15:32.974Z,10.70
2023-05-13T00:18:00.870Z,12.50
2023-05-13T00:20:28.836Z,10.00
2023-05-13T00:22:56.787Z,11.10
2023-05-13T00:25:24.689Z,9.90
2023-05-13T00:27:52.672Z,7.90
2023-05-13T00:30:21.418Z,13.50
2023-05-13T00:32:49.656Z,8.90
2023-05-13T00:35:20.894Z,10.50
2023-05-13T00:37:48.939Z,11.90
2023-05-13T00:40:23.433Z,8.80
2023-05-13T00:42:51.740Z,7.10
2023-05-13T00:45:21.508Z,10.20
2023-05-13T00:47:49.764Z,10.50
2023-05-13T00:50:17.890Z,10.50
2023-05-13T00:52:49.679Z,13.30
2023-05-13T00:55:17.931Z,10.70
2023-05-13T00:57:46.153Z,17.60
2023-05-13T01:00:14.668Z,10.40
2023-05-13T01:03:08.180Z,8.10
2023-05-13T01:05:55.201Z,9.00
2023-05-13T01:08:47.341Z,11.00
2023-05-13T01:11:22.010Z,9.20
2023-05-13T01:13:58.185Z,10.50
2023-05-13T01:16:43.477Z,9.30
2023-05-13T01:19:44.512Z,10.00
2023-05-13T01:22:13.362Z,10.60
2023-05-13T01:24:42.625Z,10.90
2023-05-13T01:27:10.664Z,8.00
2023-05-13T01:29:38.919Z,10.10
2023-05-13T01:32:09.535Z,11.60
2023-05-13T01:34:39.644Z,10.10
2023-05-13T01:37:08.086Z,8.80
2023-05-13T01:39:38.449Z,7.80
2023-05-13T01:42:09.479Z,9.90
2023-05-13T01:44:37.552Z,9.40
2023-05-13T01:47:06.326Z,8.90
2023-05-13T01:49:34.347Z,7.70
2023-05-13T01:52:02.296Z,8.10
2023-05-13T01:54:30.931Z,9.40
2023-05-13T01:57:04.526Z,8.20
2023-05-13T01:59:32.503Z,9.30
2023-05-13T02:02:00.721Z,9.30
2023-05-13T02:04:28.732Z,7.60
2023-05-13T02:06:57.116Z,7.50
2023-05-13T02:09:25.856Z,8.80
2023-05-13T02:11:53.863Z,8.40
2023-05-13T02:14:22.519Z,7.30
2023-05-13T02:16:50.845Z,9.20
2023-05-13T02:19:20.001Z,9.50
2023-05-13T02:21:49.823Z,10.40
2023-05-13T02:24:17.919Z,10.10
2023-05-13T02:26:45.877Z,8.10
2023-05-13T02:29:14.373Z,8.70
2023-05-13T02:31:43.541Z,7.90
2023-05-13T02:34:11.715Z,9.70
2023-05-13T02:36:39.717Z,9.30
2023-05-13T02:39:08.371Z,10.20
2023-05-13T02:41:37.734Z,9.70
2023-05-13T02:44:06.163Z,11.80
2023-05-13T02:46:35.068Z,10.90
2023-05-13T02:49:03.610Z,11.40
2023-05-13T02:51:32.417Z,9.00
2023-05-13T02:54:00.619Z,10.70
2023-05-13T02:56:28.657Z,10.10
2023-05-13T02:58:57.051Z,11.90
2023-05-13T03:01:26.782Z,10.30
2023-05-13T03:03:55.070Z,8.90
2023-05-13T03:06:23.081Z,10.00
2023-05-13T03:08:51.540Z,8.80
2023-05-13T03:11:19.498Z,9.70
2023-05-13T03:13:47.417Z,11.20
2023-05-13T03:16:15.577Z,6.90
2023-05-13T03:18:43.775Z,7.30
2023-05-13T03:21:11.960Z,8.80
2023-05-13T03:23:40.388Z,11.40
2023-05-13T03:26:08.423Z,7.40
2023-05-13T03:28:36.432Z,7.40
2023-05-13T03:31:04.723Z,8.90
2023-05-13T03:33:34.813Z,8.90
2023-05-13T03:36:02.960Z,7.30
2023-05-13T03:38:32.714Z,10.40
2023-05-13T03:41:00.794Z,8.50
2023-05-13T03:43:29.657Z,8.00
2023-05-13T03:46:01.008Z,11.70
2023-05-13T03:48:29.102Z,8.80
2023-05-13T03:50:58.315Z,9.60
2023-05-13T03:53:26.426Z,7.30
2023-05-13T03:55:55.135Z,8.30
2023-05-13T03:58:23.155Z,8.40
2023-05-13T04:00:51.116Z,10.10
2023-05-13T04:03:19.593Z,7.40
2023-05-13T04:05:48.711Z,8.80
2023-05-13T04:08:16.720Z,10.00
2023-05-13T04:10:45.302Z,10.30
2023-05-13T04:13:13.324Z,8.50
2023-05-13T04:15:41.628Z,11.00
2023-05-13T04:18:09.959Z,8.20
2023-05-13T04:20:39.600Z,9.50
2023-05-13T04:23:07.812Z,7.30
2023-05-13T04:25:37.548Z,10.20
2023-05-13T04:28:05.741Z,9.00
2023-05-13T04:30:37.399Z,8.40
2023-05-13T04:33:06.693Z,8.90
2023-05-13T04:35:36.001Z,9.90
2023-05-13T04:38:06.039Z,11.50
2023-05-13T04:40:34.103Z,11.10
2023-05-13T04:43:07.746Z,11.90
2023-05-13T04:45:43.035Z,8.40
2023-05-13T04:48:13.696Z,9.90
2023-05-13T04:50:47.341Z,8.30
2023-05-13T04:53:16.712Z,7.60
2023-05-13T04:55:50.757Z,6.70
2023-05-13T04:58:18.748Z,9.20
2023-05-13T05:00:47.219Z,7.60
2023-05-13T05:03:16.378Z,10.60
2023-05-13T05:05:44.550Z,18.90
2023-05-13T05:08:14.421Z,9.40
2023-05-13T05:10:42.659Z,10.10
2023-05-13T05:13:11.319Z,10.50
2023-05-13T05:15:40.035Z,12.40
2023-05-13T05:18:10.214Z,8.20
2023-05-13T05:20:40.137Z,8.40
2023-05-13T05:23:12.683Z,7.40
2023-05-13T05:25:40.930Z,11.20
2023-05-13T05:28:10.040Z,8.50
2023-05-13T05:30:42.016Z,9.60
2023-05-13T05:33:22.513Z,14.90
2023-05-13T05:35:51.565Z,9.80
2023-05-13T05:38:26.094Z,7.40
2023-05-13T05:40:56.608Z,8.50
2023-05-13T05:43:25.004Z,10.60
2023-05-13T05:45:53.782Z,8.70
2023-05-13T05:48:23.402Z,12.00
2023-05-13T05:50:51.999Z,11.50
2023-05-13T05:53:28.071Z,8.70
2023-05-13T05:55:56.336Z,8.50
2023-05-13T05:58:27.281Z,7.70
2023-05-13T06:00:57.354Z,8.50
2023-05-13T06:03:27.752Z,10.00
2023-05-13T06:05:56.075Z,11.00
2023-05-13T06:08:30.373Z,10.20
2023-05-13T06:10:59.096Z,8.10
2023-05-13T06:13:27.333Z,7.50
2023-05-13T06:15:56.813Z,9.80
2023-05-13T06:18:26.729Z,6.90
2023-05-13T06:20:55.437Z,7.40
2023-05-13T06:23:23.503Z,9.20
2023-05-13T06:25:53.097Z,9.20
2023-05-13T06:28:21.463Z,7.60
2023-05-13T06:30:52.052Z,8.10
2023-05-13T06:33:20.220Z,7.10
2023-05-13T06:35:49.992Z,7.50
2023-05-13T06:38:20.490Z,7.80
2023-05-13T06:40:49.151Z,9.90
2023-05-13T06:43:18.308Z,7.50
2023-05-13T06:45:54.257Z,8.00
2023-05-13T06:48:23.166Z,10.60
2023-05-13T06:50:51.564Z,9.30
2023-05-13T06:53:19.839Z,6.80
2023-05-13T06:55:48.008Z,8.00
2023-05-13T06:58:16.280Z,6.70
2023-05-13T07:00:47.141Z,8.00
2023-05-13T07:03:15.483Z,9.30
2023-05-13T07:05:44.745Z,9.60
2023-05-13T07:08:19.085Z,8.70
2023-05-13T07:10:47.316Z,12.70
2023-05-13T07:13:15.817Z,9.40
2023-05-13T07:15:44.344Z,7.10
2023-05-13T07:18:12.466Z,10.70
2023-05-13T07:20:40.883Z,8.80
2023-05-13T07:23:09.230Z,12.30
2023-05-13T07:25:37.399Z,8.60
2023-05-13T07:28:05.523Z,6.80
2023-05-13T07:30:33.650Z,9.60
2023-05-13T07:33:02.183Z,10.70
2023-05-13T07:35:31.031Z,7.60
2023-05-13T07:37:59.256Z,7.10
2023-05-13T07:40:27.110Z,9.90
2023-05-13T07:42:55.188Z,6.10
2023-05-13T07:45:23.713Z,13.40
2023-05-13T07:47:51.956Z,9.50
2023-05-13T07:50:20.031Z,10.00
2023-05-13T07:52:52.116Z,6.70
2023-05-13T07:55:20.655Z,7.50
2023-05-13T07:57:49.526Z,7.90
2023-05-13T08:00:17.996Z,6.70
2023-05-13T08:02:46.329Z,7.50
2023-05-13T08:05:14.519Z,7.90
2023-05-13T08:07:42.627Z,8.00
2023-05-13T08:10:10.795Z,8.30
2023-05-13T08:12:40.567Z,9.30
2023-05-13T08:15:08.957Z,8.00
2023-05-13T08:17:37.239Z,9.40
2023-05-13T08:20:06.031Z,12.30
2023-05-13T08:22:34.217Z,8.50
2023-05-13T08:25:03.634Z,8.90
2023-05-13T08:27:31.792Z,8.80
2023-05-13T08:29:59.892Z,7.80
2023-05-13T08:32:28.008Z,13.10
2023-05-13T08:34:56.394Z,9.50
2023-05-13T08:37:24.327Z,8.80
2023-05-13T08:39:52.359Z,10.50
2023-05-13T08:42:23.212Z,8.20
2023-05-13T08:44:53.190Z,7.00
2023-05-13T08:47:58.576Z,8.20
2023-05-13T08:50:28.627Z,10.40
2023-05-13T08:52:59.190Z,7.20
2023-05-13T08:55:27.614Z,9.70
2023-05-13T08:57:56.241Z,9.00
2023-05-13T09:00:24.718Z,9.90
2023-05-13T09:02:52.865Z,7.30
2023-05-13T09:05:22.364Z,8.70
2023-05-13T09:07:51.327Z,7.10
2023-05-13T09:10:21.291Z,7.30
2023-05-13T09:12:50.889Z,9.70
2023-05-13T09:15:20.800Z,7.70
2023-05-13T09:17:53.447Z,8.50
2023-05-13T09:20:25.521Z,11.70
2023-05-13T09:22:53.691Z,6.60
2023-05-13T09:25:27.171Z,7.60
2023-05-13T09:28:00.857Z,7.00
2023-05-13T09:30:33.956Z,7.60
2023-05-13T09:33:16.740Z,9.00
2023-05-13T09:35:53.722Z,16.90
2023-05-13T09:38:26.247Z,9.40
2023-05-13T09:40:59.126Z,10.70
2023-05-13T09:43:32.667Z,8.20
2023-05-13T09:46:05.657Z,8.50
2023-05-13T09:48:35.070Z,9.80
2023-05-13T09:51:03.729Z,12.70
2023-05-13T09:53:31.867Z,8.90
2023-05-13T09:56:01.845Z,6.30
2023-05-13T09:58:31.211Z,7.50
2023-05-13T10:01:00.870Z,8.60
2023-05-13T10:03:30.135Z,8.10
2023-05-13T10:06:02.308Z,8.30
2023-05-13T10:08:31.737Z,6.90
2023-05-13T10:11:00.082Z,7.50
2023-05-13T10:13:31.876Z,6.00
2023-05-13T10:16:00.388Z,10.50
2023-05-13T10:18:29.482Z,6.70
2023-05-13T10:20:57.803Z,9.40
2023-05-13T10:23:28.649Z,6.20
2023-05-13T10:25:59.238Z,9.80
2023-05-13T10:28:28.574Z,7.20
2023-05-13T10:30:57.291Z,9.00
2023-05-13T10:33:27.448Z,8.10
2023-05-13T10:36:01.880Z,14.60
2023-05-13T10:39:02.788Z,11.10
2023-05-13T10:42:00.200Z,8.10
2023-05-13T10:44:28.946Z,6.20
2023-05-13T10:46:57.764Z,6.30
2023-05-13T10:49:36.968Z,5.90
2023-05-13T10:52:12.759Z,9.10
2023-05-13T10:54:44.418Z,15.30
2023-05-13T10:57:13.968Z,7.20
2023-05-13T11:00:17.058Z,5.90
2023-05-13T11:02:45.607Z,10.50
2023-05-13T11:05:21.818Z,8.70
2023-05-13T11:07:58.365Z,9.20
2023-05-13T11:10:30.682Z,9.70
2023-05-13T11:13:14.168Z,8.10
2023-05-13T11:15:51.255Z,8.30
2023-05-13T11:18:21.375Z,11.90
2023-05-13T11:20:54.322Z,8.50
2023-05-13T11:23:22.684Z,6.00
2023-05-13T11:26:16.530Z,8.10
2023-05-13T11:28:58.492Z,7.00
2023-05-13T11:31:29.287Z,10.50
2023-05-13T11:34:15.183Z,6.30
2023-05-13T11:37:04.690Z,9.00
2023-05-13T11:39:33.315Z,4.50
2023-05-13T11:42:06.874Z,8.20
2023-05-13T11:44:36.136Z,12.80
2023-05-13T11:47:06.272Z,7.50
2023-05-13T11:49:37.721Z,6.80
2023-05-13T11:52:07.383Z,9.50
2023-05-13T11:54:53.976Z,7.30
2023-05-13T11:57:35.052Z,8.10
2023-05-13T12:00:05.281Z,6.90
2023-05-13T12:02:38.145Z,6.60
2023-05-13T12:05:09.037Z,6.70
2023-05-13T12:07:39.808Z,9.40
2023-05-13T12:10:08.938Z,10.40
2023-05-13T12:12:43.363Z,6.60
2023-05-13T12:15:18.202Z,8.40
2023-05-13T12:17:49.992Z,6.10
2023-05-13T12:20:24.758Z,6.10
2023-05-13T12:22:57.215Z,6.10
2023-05-13T12:25:44.180Z,7.10
2023-05-13T12:28:23.709Z,6.60
2023-05-13T12:30:59.399Z,10.30
2023-05-13T12:33:30.286Z,6.30
2023-05-13T12:36:20.764Z,7.90
2023-05-13T12:39:11.675Z,7.70
2023-05-13T12:41:42.472Z,12.40
2023-05-13T12:44:17.253Z,6.00
2023-05-13T12:46:59.613Z,7.70
2023-05-13T12:49:28.256Z,5.90
2023-05-13T12:51:57.297Z,5.50
2023-05-13T12:54:25.578Z,7.20
2023-05-13T12:56:54.000Z,9.30
2023-05-13T12:59:22.851Z,5.80
2023-05-13T13:01:51.386Z,4.80
2023-05-13T13:04:20.104Z,7.70
2023-05-13T13:06:48.599Z,7.60
2023-05-13T13:09:16.928Z,5.70
2023-05-13T13:11:45.228Z,5.50
2023-05-13T13:14:13.776Z,5.80
2023-05-13T13:16:42.568Z,8.30
2023-05-13T13:19:10.853Z,6.10
2023-05-13T13:21:39.505Z,6.40
2023-05-13T13:24:08.098Z,5.80
2023-05-13T13:26:36.180Z,6.40
2023-05-13T13:29:04.533Z,4.40
2023-05-13T13:31:32.753Z,6.10
2023-05-13T13:34:05.230Z,8.70
2023-05-13T13:36:33.285Z,6.60
2023-05-13T13:39:01.606Z,4.80
2023-05-13T13:41:29.808Z,5.20
2023-05-13T13:43:58.034Z,4.60
2023-05-13T13:46:26.256Z,7.30
2023-05-13T13:48:54.563Z,6.50
2023-05-13T13:51:22.903Z,5.70
2023-05-13T13:53:51.131Z,4.50
2023-05-13T13:56:20.900Z,7.80
2023-05-13T13:58:49.926Z,5.50
2023-05-13T14:01:20.408Z,5.50
2023-05-13T14:03:50.540Z,6.00
2023-05-13T14:06:19.204Z,4.50
2023-05-13T14:08:47.819Z,6.70
2023-05-13T14:11:17.073Z,4.60
2023-05-13T14:13:45.689Z,5.50
2023-05-13T14:16:14.308Z,5.10
2023-05-13T14:18:44.480Z,8.40
2023-05-13T14:21:12.677Z,3.70
2023-05-13T14:23:44.996Z,7.30
2023-05-13T14:26:18.454Z,7.80
2023-05-13T14:28:47.451Z,5.00
2023-05-13T14:31:16.475Z,4.40
2023-05-13T14:33:45.178Z,4.20
2023-05-13T14:36:16.428Z,4.40
2023-05-13T14:38:44.917Z,4.50
2023-05-13T14:41:20.016Z,4.00
2023-05-13T14:46:17.909Z,4.80
2023-05-13T14:48:46.189Z,4.60
2023-05-13T14:51:14.253Z,9.00
2023-05-13T14:53:43.514Z,5.90
2023-05-13T14:56:11.842Z,4.90
2023-05-13T14:58:40.136Z,6.00
2023-05-13T15:01:08.667Z,3.80
2023-05-13T15:03:36.946Z,4.40
2023-05-13T15:06:05.586Z,5.60
2023-05-13T15:08:34.213Z,9.40
2023-05-13T15:11:02.572Z,5.20
2023-05-13T15:13:35.608Z,5.60
2023-05-13T15:16:04.778Z,7.80
2023-05-13T15:18:33.184Z,5.50
2023-05-13T15:21:01.641Z,7.40
2023-05-13T15:23:29.822Z,5.00
2023-05-13T15:25:58.293Z,5.80
2023-05-13T15:28:26.568Z,5.10
2023-05-13T15:30:55.469Z,7.10
2023-05-13T15:33:23.500Z,4.80
2023-05-13T15:35:52.821Z,6.30
2023-05-13T15:38:21.847Z,8.10
2023-05-13T15:40:50.640Z,7.70
2023-05-13T15:43:18.941Z,9.70
2023-05-13T15:45:47.482Z,4.80
2023-05-13T15:48:17.187Z,5.30
2023-05-13T15:50:46.079Z,8.80
2023-05-13T15:53:14.535Z,4.70
2023-05-13T15:55:43.121Z,9.10
2023-05-13T15:58:11.569Z,7.70
2023-05-13T16:00:40.203Z,5.90
2023-05-13T16:03:08.838Z,6.10
2023-05-13T16:05:38.728Z,9.50
2023-05-13T16:08:07.125Z,5.40
2023-05-13T16:10:35.909Z,5.60
2023-05-13T16:13:04.739Z,11.30
2023-05-13T16:15:33.162Z,7.50
2023-05-13T16:18:01.634Z,6.00
2023-05-13T16:20:29.698Z,5.20
2023-05-13T16:22:58.619Z,5.20
2023-05-13T16:25:27.509Z,7.40
2023-05-13T16:27:57.093Z,9.10
2023-05-13T16:30:25.709Z,11.70
2023-05-13T16:32:54.759Z,11.00
2023-05-13T16:35:23.002Z,9.90
2023-05-13T16:37:51.618Z,8.80
2023-05-13T16:40:19.933Z,12.20
2023-05-13T16:42:48.260Z,8.20
2023-05-13T16:45:16.820Z,6.80
2023-05-13T16:47:45.008Z,6.50
2023-05-13T16:50:13.774Z,9.40
2023-05-13T16:52:42.463Z,8.50
2023-05-13T16:55:10.655Z,9.90
2023-05-13T16:57:38.825Z,10.90
2023-05-13T17:00:07.476Z,6.40
2023-05-13T17:02:36.080Z,5.60
2023-05-13T17:05:04.933Z,6.70
2023-05-13T17:07:33.205Z,7.30
2023-05-13T17:10:01.545Z,7.50
2023-05-13T17:12:29.742Z,12.20
2023-05-13T17:14:58.340Z,14.60
2023-05-13T17:17:26.946Z,6.80
2023-05-13T17:19:55.601Z,8.10
2023-05-13T17:22:23.838Z,9.90
2023-05-13T17:24:52.023Z,9.60
2023-05-13T17:27:21.630Z,8.20
2023-05-13T17:29:50.066Z,18.30
2023-05-13T17:32:19.924Z,18.40
2023-05-13T17:34:49.809Z,13.90
2023-05-13T17:37:17.851Z,15.90
2023-05-13T17:39:46.224Z,10.40
2023-05-13T17:42:14.570Z,9.00
2023-05-13T17:44:42.684Z,8.40
2023-05-13T17:47:10.892Z,10.30
2023-05-13T17:49:38.972Z,11.20
2023-05-13T17:52:07.283Z,10.50
2023-05-13T17:54:38.048Z,10.50
2023-05-13T17:57:06.934Z,10.70
2023-05-13T17:59:35.006Z,10.50
2023-05-13T18:02:03.137Z,10.40
2023-05-13T18:04:31.500Z,10.50
2023-05-13T18:06:59.617Z,8.60
2023-05-13T18:09:28.560Z,12.40
2023-05-13T18:11:58.846Z,10.00
2023-05-13T18:14:34.516Z,12.10
2023-05-13T18:17:03.056Z,10.70
2023-05-13T18:19:31.545Z,9.90
2023-05-13T18:21:59.733Z,16.90
2023-05-13T18:24:27.910Z,15.10
2023-05-13T18:26:56.119Z,9.30
2023-05-13T18:29:24.253Z,12.80
2023-05-13T18:31:52.846Z,8.20
2023-05-13T18:34:21.250Z,8.40
2023-05-13T18:36:52.028Z,11.80
2023-05-13T18:39:22.107Z,10.20
2023-05-13T18:41:50.726Z,10.20
2023-05-13T18:44:18.874Z,9.80
2023-05-13T18:46:47.094Z,12.20
2023-05-13T18:49:15.374Z,7.50
2023-05-13T18:51:45.338Z,6.90
2023-05-13T18:54:13.379Z,9.50
2023-05-13T18:56:42.232Z,10.50
2023-05-13T18:59:10.419Z,9.60
2023-05-13T19:01:38.571Z,9.90
2023-05-13T19:04:06.897Z,12.00
2023-05-13T19:06:38.091Z,8.60
2023-05-13T19:09:06.613Z,10.60
2023-05-13T19:11:34.525Z,37.00
2023-05-13T19:14:02.759Z,90.60
2023-05-13T19:16:30.838Z,31.20
2023-05-13T19:18:58.924Z,46.80
2023-05-13T19:21:27.294Z,43.60
2023-05-13T19:23:55.308Z,39.40
2023-05-13T19:26:23.441Z,44.60
2023-05-13T19:28:52.142Z,39.90
2023-05-13T19:31:22.286Z,44.10
2023-05-13T19:33:50.530Z,41.30
2023-05-13T19:36:18.620Z,41.20
2023-05-13T19:38:46.859Z,38.50
2023-05-13T19:41:15.979Z,36.00
2023-05-13T19:43:46.991Z,34.20
2023-05-13T19:46:15.266Z,23.40
2023-05-13T19:48:43.362Z,26.20
2023-05-13T19:51:11.422Z,24.30
2023-05-13T19:53:39.818Z,19.40
2023-05-13T19:56:07.874Z,18.90
2023-05-13T19:58:36.765Z,20.80
2023-05-13T20:01:04.933Z,29.40
2023-05-13T20:03:32.985Z,20.50
2023-05-13T20:06:01.977Z,12.40
2023-05-13T20:08:31.654Z,18.40
2023-05-13T20:10:59.994Z,15.80
2023-05-13T20:13:28.142Z,14.90
2023-05-13T20:15:56.112Z,14.70
2023-05-13T20:18:24.115Z,16.00
2023-05-13T20:20:53.845Z,18.10
2023-05-13T20:23:21.826Z,15.90
2023-05-13T20:25:49.923Z,13.50
2023-05-13T20:28:17.915Z,15.80
2023-05-13T20:30:46.157Z,16.00
2023-05-13T20:33:14.123Z,15.40
2023-05-13T20:35:42.359Z,17.20
2023-05-13T20:38:10.847Z,14.30
2023-05-13T20:40:39.149Z,19.00
2023-05-13T20:43:07.906Z,19.20
2023-05-13T20:45:39.892Z,12.80
2023-05-13T20:48:09.315Z,13.40
2023-05-13T20:50:37.755Z,14.70
2023-05-13T20:53:05.963Z,15.10
2023-05-13T20:55:33.859Z,12.50
2023-05-13T20:58:01.879Z,15.30
2023-05-13T21:00:31.531Z,18.30
2023-05-13T21:03:00.249Z,13.20
2023-05-13T21:05:28.737Z,13.60
2023-05-13T21:07:57.751Z,12.50
2023-05-13T21:10:26.161Z,12.50
2023-05-13T21:12:54.317Z,11.20
2023-05-13T21:15:22.596Z,13.60
2023-05-13T21:17:50.827Z,11.20
2023-05-13T21:20:19.161Z,9.60
2023-05-13T21:22:47.561Z,14.30
2023-05-13T21:25:15.984Z,11.70
2023-05-13T21:27:44.303Z,15.40
2023-05-13T21:30:13.730Z,15.30
2023-05-13T21:32:42.221Z,13.40
2023-05-13T21:35:10.741Z,14.80
2023-05-13T21:37:39.080Z,16.90
2023-05-13T21:40:08.543Z,16.60
2023-05-13T21:42:37.019Z,15.40
2023-05-13T21:45:05.880Z,17.10
2023-05-13T21:47:33.774Z,15.50
2023-05-13T21:50:01.941Z,15.70
2023-05-13T21:52:30.052Z,13.90
2023-05-13T21:54:58.114Z,14.80
2023-05-13T21:57:26.222Z,15.00
2023-05-13T21:59:54.305Z,16.20
2023-05-13T22:02:22.841Z,17.30
2023-05-13T22:04:51.191Z,13.70
2023-05-13T22:07:19.536Z,16.60
2023-05-13T22:09:49.749Z,12.50
2023-05-13T22:12:18.770Z,12.80
2023-05-13T22:14:46.966Z,11.80
2023-05-13T22:17:15.330Z,13.50
2023-05-13T22:19:43.547Z,16.10
2023-05-13T22:22:11.827Z,19.90
2023-05-13T22:24:39.862Z,11.50
2023-05-13T22:27:07.925Z,13.10
2023-05-13T22:29:36.152Z,11.60
2023-05-13T22:32:04.412Z,14.50
2023-05-13T22:34:32.904Z,14.00
2023-05-13T22:37:01.932Z,13.20
2023-05-13T22:39:30.088Z,12.20
2023-05-13T22:42:00.152Z,12.70
2023-05-13T22:44:28.474Z,16.20
2023-05-13T22:46:56.575Z,13.40
2023-05-13T22:49:24.753Z,15.00
2023-05-13T22:51:52.976Z,13.20
2023-05-13T22:54:21.123Z,17.90
2023-05-13T22:56:49.388Z,13.50
2023-05-13T22:59:17.557Z,13.80
2023-05-13T23:01:45.879Z,13.00
2023-05-13T23:04:14.004Z,15.10
2023-05-13T23:06:42.084Z,17.80
2023-05-13T23:09:10.542Z,17.10
2023-05-13T23:11:38.721Z,13.20
2023-05-13T23:14:06.911Z,12.80
2023-05-13T23:16:36.686Z,13.80
2023-05-13T23:19:04.847Z,12.60
2023-05-13T23:21:33.130Z,10.90
2023-05-13T23:24:01.204Z,15.90
2023-05-13T23:26:29.231Z,13.90
2023-05-13T23:28:57.348Z,12.90
2023-05-13T23:31:25.538Z,12.70
2023-05-13T23:33:53.759Z,12.20
2023-05-13T23:36:21.807Z,15.20
2023-05-13T23:38:50.937Z,15.60
2023-05-13T23:41:19.042Z,15.90
2023-05-13T23:43:47.287Z,13.90
2023-05-13T23:46:15.454Z,14.40
2023-05-13T23:48:43.837Z,18.80
2023-05-13T23:51:12.010Z,14.30
2023-05-13T23:53:40.243Z,13.70
2023-05-13T23:56:08.645Z,15.20
2023-05-13T23:58:37.215Z,15.60
